ePrivacy and GPDR Cookie Consent by Cookie Consent
EmailTwitter


Observations de surface / Québec / CYMX

Régions: Québec | Canada | États-Unis | Europe | France | UK | Ailleurs
Station
Affichage
Infos & localisation pour CYMX | Aide pour décoder les METARs

Observations prises le 2023-01-30 à 04H12 UTC à MONTREAL MIRABEL, QB (CYMX)

Etat du ciel: couvert.

Obstacle(s) à la visibilité: faible neige et brume.

Température: -10.0 Celsius

Point de rosée: -10.0 Celsius

Humidité relative: 100%

Facteur vent -16.

Vents: Ouest à 11 km/h ou 6 noeuds.

Pression au niveau moyen de la mer: 102.27 kilopascals.

Calage altimétrique: 102.17 kilopascals ou 30.17 pouces de mercure.

Visibilité horizontale: 1.50 milles terrestres ou 2.40 kilomètres.

Hauteur du plafond: 61 mètres ( 200 pieds ).

Observation METAR:

CYMX 300412Z 26006KT 220V300 1 1/2SM -SN BR OVC002 M10/M10 A3017 RMK ST8 PRESRR

SLP227=